VOZ1282 YBHM-YSSY
Flight info
| Callsign | VOZ1282 |
|---|---|
| Flight time | N/A |
| Altitude | 37000 |
| Route | OVRON B462 MK H652 BOREE |
| Aircraft | B738/M-SDE2E3FGHIRWXY/LB1 |
Departure
| Time | 2026-04-21 04:37 |
|---|---|
| Airport | Hamilton Island Airport (YBHM) |
Arrival
| Time | N/A |
|---|---|
| Airport | Sydney Kingsford Smith International Airport (YSSY) |
| Time | Latitude | Longitude | Altitude | Speed | Heading |
|---|---|---|---|---|---|
| 2026-04-21 04:16 | -20.35220 | 148.94895 | 19 ft | 0 kts | 311° |
| 2026-04-21 04:33 | -20.35218 | 148.94888 | 19 ft | 2 kts | 281° |
| 2026-04-21 04:33 | -20.35226 | 148.94862 | 19 ft | 5 kts | 246° |
| 2026-04-21 04:33 | -20.35252 | 148.94825 | 22 ft | 7 kts | 233° |
| 2026-04-21 04:33 | -20.35261 | 148.94775 | 20 ft | 8 kts | 318° |
| 2026-04-21 04:34 | -20.35205 | 148.94729 | 19 ft | 12 kts | 323° |
| 2026-04-21 04:34 | -20.35124 | 148.94692 | 18 ft | 14 kts | 5° |
| 2026-04-21 04:34 | -20.35084 | 148.94671 | 20 ft | 4 kts | 256° |
| 2026-04-21 04:34 | -20.35107 | 148.94648 | 19 ft | 6 kts | 199° |
| 2026-04-21 04:35 | -20.35135 | 148.94674 | 19 ft | 6 kts | 117° |
| 2026-04-21 04:35 | -20.35156 | 148.94691 | 19 ft | 0 kts | 142° |
| 2026-04-21 04:36 | -20.35362 | 148.94856 | 21 ft | 92 kts | 143° |
| 2026-04-21 04:37 | -20.36154 | 148.95498 | 143 ft | 182 kts | 141° |
| 2026-04-21 04:37 | -20.37186 | 148.96399 | 1319 ft | 200 kts | 144° |
| 2026-04-21 04:37 | -20.38486 | 148.97065 | 2399 ft | 217 kts | 164° |
| 2026-04-21 04:37 | -20.40037 | 148.97472 | 2998 ft | 234 kts | 166° |
| 2026-04-21 04:38 | -20.41578 | 148.97889 | 4082 ft | 227 kts | 168° |
| 2026-04-21 04:38 | -20.43168 | 148.98262 | 4691 ft | 241 kts | 166° |
| 2026-04-21 04:38 | -20.44822 | 148.98714 | 5413 ft | 248 kts | 166° |
| 2026-04-21 04:38 | -20.46525 | 148.99191 | 5993 ft | 266 kts | 166° |
| 2026-04-21 04:39 | -20.48353 | 148.99703 | 6803 ft | 276 kts | 166° |
| 2026-04-21 04:39 | -20.50221 | 149.00223 | 7931 ft | 278 kts | 166° |
| 2026-04-21 04:39 | -20.52104 | 149.00746 | 9030 ft | 281 kts | 166° |
| 2026-04-21 04:39 | -20.54011 | 149.01273 | 10049 ft | 286 kts | 166° |
| 2026-04-21 04:40 | -20.55989 | 149.01818 | 10745 ft | 305 kts | 166° |
| 2026-04-21 04:40 | -20.58155 | 149.02413 | 10984 ft | 336 kts | 166° |
| 2026-04-21 04:40 | -20.60505 | 149.03058 | 11390 ft | 358 kts | 166° |
| 2026-04-21 04:40 | -20.62948 | 149.03729 | 12189 ft | 365 kts | 166° |
| 2026-04-21 04:41 | -20.65396 | 149.04401 | 13105 ft | 369 kts | 166° |
| 2026-04-21 04:41 | -20.67920 | 149.05094 | 14017 ft | 373 kts | 166° |
| 2026-04-21 04:41 | -20.70419 | 149.05781 | 14830 ft | 378 kts | 166° |
| 2026-04-21 04:41 | -20.72978 | 149.06484 | 15640 ft | 382 kts | 166° |
| 2026-04-21 04:42 | -20.75577 | 149.07198 | 16430 ft | 387 kts | 166° |
| 2026-04-21 04:42 | -20.78198 | 149.07918 | 17192 ft | 391 kts | 166° |
| 2026-04-21 04:42 | -20.80851 | 149.08648 | 17936 ft | 396 kts | 166° |
| 2026-04-21 04:42 | -20.83534 | 149.09386 | 18653 ft | 400 kts | 166° |
| 2026-04-21 04:43 | -20.86250 | 149.10133 | 19349 ft | 404 kts | 166° |
| 2026-04-21 04:43 | -20.88990 | 149.10887 | 20019 ft | 408 kts | 166° |
| 2026-04-21 04:43 | -20.91758 | 149.11650 | 20673 ft | 412 kts | 166° |
| 2026-04-21 04:43 | -20.94551 | 149.12419 | 21299 ft | 416 kts | 166° |
| 2026-04-21 04:44 | -20.97373 | 149.13197 | 21897 ft | 420 kts | 166° |
| 2026-04-21 04:44 | -21.00216 | 149.13981 | 22469 ft | 424 kts | 166° |
| 2026-04-21 04:44 | -21.03056 | 149.14764 | 23037 ft | 428 kts | 166° |
| 2026-04-21 04:44 | -21.05948 | 149.15562 | 23573 ft | 431 kts | 166° |
| 2026-04-21 04:45 | -21.08873 | 149.16370 | 24095 ft | 435 kts | 166° |
| 2026-04-21 04:45 | -21.11815 | 149.17183 | 24598 ft | 438 kts | 166° |
| 2026-04-21 04:45 | -21.14779 | 149.18001 | 25082 ft | 441 kts | 166° |
| 2026-04-21 04:45 | -21.17771 | 149.18805 | 25553 ft | 444 kts | 168° |
| 2026-04-21 04:46 | -21.20826 | 149.19382 | 25996 ft | 448 kts | 172° |
| 2026-04-21 04:46 | -21.23930 | 149.19841 | 26434 ft | 450 kts | 173° |
| 2026-04-21 04:46 | -21.27045 | 149.20258 | 26860 ft | 453 kts | 173° |
| 2026-04-21 04:46 | -21.30188 | 149.20675 | 27253 ft | 456 kts | 173° |
| 2026-04-21 04:47 | -21.33348 | 149.21105 | 27647 ft | 459 kts | 173° |
| 2026-04-21 04:47 | -21.36524 | 149.21552 | 28004 ft | 462 kts | 173° |
| 2026-04-21 04:47 | -21.39720 | 149.22014 | 28370 ft | 464 kts | 172° |
| 2026-04-21 04:47 | -21.42931 | 149.22486 | 28725 ft | 467 kts | 172° |
| 2026-04-21 04:48 | -21.46113 | 149.22958 | 29061 ft | 469 kts | 172° |
| 2026-04-21 04:48 | -21.49352 | 149.23440 | 29446 ft | 470 kts | 172° |
| 2026-04-21 04:48 | -21.52591 | 149.23923 | 29940 ft | 468 kts | 172° |
| 2026-04-21 04:48 | -21.55800 | 149.24401 | 30444 ft | 465 kts | 172° |
| 2026-04-21 04:49 | -21.58998 | 149.24877 | 30812 ft | 464 kts | 172° |
| 2026-04-21 04:49 | -21.62204 | 149.25354 | 31086 ft | 465 kts | 172° |
| 2026-04-21 04:49 | -21.65415 | 149.25832 | 31357 ft | 466 kts | 172° |
| 2026-04-21 04:49 | -21.68627 | 149.26310 | 31715 ft | 465 kts | 172° |
| 2026-04-21 04:50 | -21.71827 | 149.26786 | 32119 ft | 463 kts | 172° |
| 2026-04-21 04:50 | -21.75016 | 149.27261 | 32453 ft | 462 kts | 172° |
| 2026-04-21 04:50 | -21.78213 | 149.27738 | 32728 ft | 463 kts | 172° |
| 2026-04-21 04:50 | -21.81408 | 149.28214 | 32966 ft | 465 kts | 172° |
| 2026-04-21 04:51 | -21.84613 | 149.28692 | 33305 ft | 464 kts | 172° |
| 2026-04-21 04:51 | -21.87806 | 149.29169 | 33697 ft | 462 kts | 172° |
| 2026-04-21 04:51 | -21.90979 | 149.29643 | 34082 ft | 460 kts | 172° |
| 2026-04-21 04:51 | -21.94144 | 149.30116 | 34380 ft | 460 kts | 172° |
| 2026-04-21 04:52 | -21.97319 | 149.30590 | 34651 ft | 460 kts | 172° |
| 2026-04-21 04:52 | -22.00489 | 149.31064 | 34964 ft | 460 kts | 172° |
| 2026-04-21 04:52 | -22.03658 | 149.31538 | 35266 ft | 460 kts | 172° |
| 2026-04-21 04:52 | -22.06782 | 149.32006 | 35577 ft | 459 kts | 172° |
| 2026-04-21 04:53 | -22.09945 | 149.32479 | 35886 ft | 458 kts | 172° |
| 2026-04-21 04:53 | -22.13097 | 149.32952 | 36230 ft | 456 kts | 172° |
| 2026-04-21 04:53 | -22.16249 | 149.33424 | 36552 ft | 455 kts | 172° |
| 2026-04-21 04:53 | -22.19380 | 149.33894 | 36849 ft | 454 kts | 172° |
| 2026-04-21 04:54 | -22.22512 | 149.34364 | 37007 ft | 457 kts | 172° |
| 2026-04-21 04:54 | -22.28846 | 149.35314 | 37003 ft | 460 kts | 172° |
| 2026-04-21 04:55 | -22.35156 | 149.36263 | 36989 ft | 452 kts | 172° |
| 2026-04-21 04:55 | -22.41382 | 149.37199 | 37006 ft | 452 kts | 172° |
| 2026-04-21 04:56 | -22.47658 | 149.37816 | 36999 ft | 454 kts | 178° |
| 2026-04-21 04:56 | -22.53939 | 149.38058 | 37007 ft | 455 kts | 178° |
| 2026-04-21 04:57 | -22.60281 | 149.38290 | 37003 ft | 457 kts | 178° |
| 2026-04-21 04:57 | -22.66648 | 149.38571 | 37003 ft | 458 kts | 178° |
| 2026-04-21 04:58 | -22.73025 | 149.38881 | 37002 ft | 459 kts | 178° |
| 2026-04-21 04:58 | -22.79406 | 149.39198 | 37000 ft | 458 kts | 178° |
| 2026-04-21 04:59 | -22.85781 | 149.39515 | 37000 ft | 457 kts | 178° |
| 2026-04-21 04:59 | -22.92126 | 149.39829 | 37000 ft | 456 kts | 178° |
| 2026-04-21 05:00 | -22.98459 | 149.40143 | 37000 ft | 455 kts | 178° |
| 2026-04-21 05:00 | -23.07894 | 149.40610 | 37000 ft | 453 kts | 178° |
| 2026-04-21 05:01 | -23.14184 | 149.40922 | 37002 ft | 452 kts | 178° |
| 2026-04-21 05:01 | -23.20467 | 149.41234 | 37001 ft | 452 kts | 178° |
| 2026-04-21 05:02 | -23.26733 | 149.41533 | 36989 ft | 444 kts | 178° |
| 2026-04-21 05:02 | -23.32798 | 149.41802 | 36987 ft | 428 kts | 178° |
| 2026-04-21 05:03 | -23.38639 | 149.42082 | 36986 ft | 413 kts | 178° |
| 2026-04-21 05:03 | -23.44251 | 149.42362 | 36987 ft | 399 kts | 178° |
| 2026-04-21 05:04 | -23.49722 | 149.42636 | 36987 ft | 387 kts | 178° |
| 2026-04-21 05:04 | -23.55019 | 149.42901 | 36987 ft | 375 kts | 178° |
| 2026-04-21 05:05 | -23.60160 | 149.43158 | 36987 ft | 364 kts | 178° |
| 2026-04-21 05:05 | -23.65148 | 149.43407 | 36986 ft | 353 kts | 178° |
| 2026-04-21 05:06 | -23.69981 | 149.43649 | 36984 ft | 342 kts | 178° |
| 2026-04-21 05:06 | -23.74655 | 149.43883 | 36958 ft | 331 kts | 178° |
| 2026-04-21 05:07 | -23.79233 | 149.44112 | 36691 ft | 329 kts | 178° |
| 2026-04-21 05:07 | -23.81503 | 149.44225 | 36469 ft | 331 kts | 178° |
| 2026-04-21 05:07 | -23.83812 | 149.44341 | 36256 ft | 333 kts | 178° |
| 2026-04-21 05:08 | -23.86127 | 149.44457 | 36095 ft | 333 kts | 178° |
| 2026-04-21 05:08 | -23.88436 | 149.44572 | 35996 ft | 331 kts | 178° |
| 2026-04-21 05:08 | -23.92996 | 149.44801 | 35862 ft | 325 kts | 178° |
| 2026-04-21 05:09 | -23.97495 | 149.45027 | 35641 ft | 323 kts | 178° |
| 2026-04-21 05:09 | -23.99739 | 149.45139 | 35480 ft | 323 kts | 178° |
| 2026-04-21 05:09 | -24.01988 | 149.45252 | 35319 ft | 324 kts | 178° |
| 2026-04-21 05:10 | -24.04237 | 149.45365 | 35181 ft | 324 kts | 178° |
| 2026-04-21 05:10 | -24.06484 | 149.45478 | 35063 ft | 322 kts | 178° |
| 2026-04-21 05:10 | -24.10942 | 149.45702 | 34909 ft | 318 kts | 178° |
| 2026-04-21 05:11 | -24.15350 | 149.45924 | 34714 ft | 316 kts | 178° |
| 2026-04-21 05:11 | -24.17543 | 149.46034 | 34594 ft | 316 kts | 178° |
| 2026-04-21 05:11 | -24.19738 | 149.46145 | 34464 ft | 316 kts | 178° |
| 2026-04-21 05:12 | -24.21933 | 149.46255 | 34339 ft | 315 kts | 178° |
| 2026-04-21 05:12 | -24.24093 | 149.46364 | 34233 ft | 315 kts | 178° |
| 2026-04-21 05:12 | -24.26279 | 149.46475 | 34132 ft | 314 kts | 178° |
| 2026-04-21 05:12 | -24.28459 | 149.46585 | 34047 ft | 313 kts | 178° |
| 2026-04-21 05:13 | -24.32786 | 149.46803 | 33873 ft | 310 kts | 178° |
| 2026-04-21 05:13 | -24.34937 | 149.46912 | 33768 ft | 309 kts | 178° |
| 2026-04-21 05:13 | -24.37091 | 149.47021 | 33668 ft | 309 kts | 178° |
| 2026-04-21 05:14 | -24.39240 | 149.47129 | 33563 ft | 309 kts | 178° |
| 2026-04-21 05:14 | -24.41384 | 149.47238 | 33461 ft | 308 kts | 178° |
| 2026-04-21 05:14 | -24.45664 | 149.47454 | 33280 ft | 307 kts | 178° |
| 2026-04-21 05:15 | -24.49914 | 149.47670 | 33107 ft | 305 kts | 178° |
| 2026-04-21 05:15 | -24.54124 | 149.47883 | 32924 ft | 304 kts | 178° |
| 2026-04-21 05:16 | -24.58350 | 149.48098 | 32739 ft | 303 kts | 178° |
| 2026-04-21 05:16 | -24.62566 | 149.48312 | 32567 ft | 302 kts | 178° |
| 2026-04-21 05:17 | -24.66763 | 149.48526 | 32403 ft | 301 kts | 178° |
| 2026-04-21 05:17 | -24.70240 | 149.48703 | 32267 ft | 300 kts | 178° |
| 2026-04-21 05:18 | -24.72327 | 149.48809 | 32183 ft | 300 kts | 178° |
| 2026-04-21 05:18 | -24.74412 | 149.48916 | 32110 ft | 300 kts | 178° |
| 2026-04-21 05:18 | -24.76495 | 149.49022 | 32024 ft | 299 kts | 178° |
| 2026-04-21 05:18 | -24.78573 | 149.49128 | 31947 ft | 299 kts | 178° |
| 2026-04-21 05:19 | -24.80657 | 149.49235 | 31870 ft | 299 kts | 178° |
| 2026-04-21 05:19 | -24.82729 | 149.49341 | 31797 ft | 298 kts | 178° |
| 2026-04-21 05:19 | -24.84807 | 149.49447 | 31719 ft | 298 kts | 178° |
| 2026-04-21 05:19 | -24.86876 | 149.49553 | 31642 ft | 298 kts | 178° |
| 2026-04-21 05:20 | -24.88944 | 149.49659 | 31565 ft | 297 kts | 178° |
| 2026-04-21 05:20 | -24.91011 | 149.49766 | 31492 ft | 297 kts | 178° |
| 2026-04-21 05:20 | -24.93078 | 149.49872 | 31421 ft | 297 kts | 178° |
| 2026-04-21 05:20 | -24.95142 | 149.49978 | 31356 ft | 296 kts | 178° |
| 2026-04-21 05:21 | -24.97173 | 149.50083 | 31295 ft | 296 kts | 178° |
| 2026-04-21 05:21 | -24.99229 | 149.50189 | 31235 ft | 295 kts | 178° |
| 2026-04-21 05:21 | -25.01281 | 149.50296 | 31178 ft | 295 kts | 178° |
| 2026-04-21 05:21 | -25.03328 | 149.50402 | 31110 ft | 294 kts | 178° |
| 2026-04-21 05:22 | -25.05376 | 149.50509 | 31044 ft | 294 kts | 178° |
| 2026-04-21 05:22 | -25.07418 | 149.50615 | 30978 ft | 294 kts | 178° |
| 2026-04-21 05:22 | -25.09460 | 149.50722 | 30914 ft | 294 kts | 178° |
| 2026-04-21 05:22 | -25.11498 | 149.50830 | 30852 ft | 293 kts | 178° |
| 2026-04-21 05:23 | -25.13538 | 149.50940 | 30798 ft | 293 kts | 178° |
| 2026-04-21 05:23 | -25.15570 | 149.51049 | 30741 ft | 292 kts | 178° |
| 2026-04-21 05:23 | -25.17601 | 149.51154 | 30686 ft | 292 kts | 178° |
| 2026-04-21 05:23 | -25.19630 | 149.51256 | 30634 ft | 291 kts | 178° |
| 2026-04-21 05:24 | -25.21651 | 149.51356 | 30580 ft | 291 kts | 178° |
| 2026-04-21 05:24 | -25.23671 | 149.51459 | 30518 ft | 291 kts | 178° |
| 2026-04-21 05:24 | -25.25693 | 149.51553 | 30462 ft | 291 kts | 178° |
| 2026-04-21 05:24 | -25.27713 | 149.51646 | 30401 ft | 291 kts | 178° |
| 2026-04-21 05:25 | -25.29734 | 149.51742 | 30342 ft | 290 kts | 178° |
| 2026-04-21 05:25 | -25.31748 | 149.51840 | 30293 ft | 290 kts | 178° |
| 2026-04-21 05:25 | -25.33746 | 149.51939 | 30247 ft | 289 kts | 178° |
| 2026-04-21 05:25 | -25.35754 | 149.52039 | 30199 ft | 289 kts | 178° |
| 2026-04-21 05:26 | -25.37763 | 149.52140 | 30149 ft | 289 kts | 178° |
| 2026-04-21 05:26 | -25.39772 | 149.52242 | 30096 ft | 289 kts | 178° |
| 2026-04-21 05:26 | -25.41780 | 149.52344 | 30044 ft | 288 kts | 178° |
| 2026-04-21 05:26 | -25.43785 | 149.52446 | 29994 ft | 288 kts | 178° |
| 2026-04-21 05:27 | -25.45789 | 149.52549 | 29950 ft | 288 kts | 178° |
| 2026-04-21 05:27 | -25.47788 | 149.52651 | 29909 ft | 287 kts | 178° |
| 2026-04-21 05:27 | -25.49783 | 149.52754 | 29869 ft | 287 kts | 178° |
| 2026-04-21 05:27 | -25.51778 | 149.52856 | 29816 ft | 286 kts | 178° |
| 2026-04-21 05:28 | -25.53767 | 149.52958 | 29776 ft | 286 kts | 178° |
| 2026-04-21 05:28 | -25.55731 | 149.53059 | 29725 ft | 286 kts | 178° |
| 2026-04-21 05:28 | -25.57720 | 149.53161 | 29674 ft | 286 kts | 178° |
| 2026-04-21 05:28 | -25.59712 | 149.53264 | 29628 ft | 286 kts | 178° |
| 2026-04-21 05:29 | -25.61700 | 149.53366 | 29589 ft | 286 kts | 178° |
| 2026-04-21 05:29 | -25.63687 | 149.53468 | 29551 ft | 285 kts | 178° |
| 2026-04-21 05:29 | -25.65669 | 149.53570 | 29515 ft | 285 kts | 178° |
| 2026-04-21 05:29 | -25.67649 | 149.53672 | 29480 ft | 285 kts | 178° |
| 2026-04-21 05:30 | -25.69626 | 149.53774 | 29435 ft | 284 kts | 178° |
| 2026-04-21 05:30 | -25.71604 | 149.53876 | 29390 ft | 284 kts | 178° |
| 2026-04-21 05:30 | -25.73579 | 149.53978 | 29347 ft | 284 kts | 178° |
| 2026-04-21 05:30 | -25.75556 | 149.54080 | 29306 ft | 284 kts | 178° |
| 2026-04-21 05:31 | -25.77531 | 149.54182 | 29271 ft | 284 kts | 178° |
| 2026-04-21 05:31 | -25.79506 | 149.54284 | 29237 ft | 283 kts | 178° |
| 2026-04-21 05:31 | -25.81454 | 149.54384 | 29200 ft | 283 kts | 178° |
| 2026-04-21 05:31 | -25.83421 | 149.54486 | 29169 ft | 283 kts | 178° |
| 2026-04-21 05:32 | -25.85386 | 149.54587 | 29131 ft | 283 kts | 178° |
| 2026-04-21 05:32 | -25.87353 | 149.54689 | 29091 ft | 283 kts | 178° |
| 2026-04-21 05:32 | -25.89319 | 149.54791 | 29053 ft | 283 kts | 178° |
| 2026-04-21 05:32 | -25.91280 | 149.54892 | 29017 ft | 282 kts | 178° |
| 2026-04-21 05:33 | -25.93242 | 149.54994 | 28985 ft | 282 kts | 178° |
| 2026-04-21 05:33 | -25.95205 | 149.55096 | 28951 ft | 282 kts | 178° |
| 2026-04-21 05:33 | -25.97165 | 149.55197 | 28919 ft | 282 kts | 178° |
| 2026-04-21 05:33 | -25.99126 | 149.55299 | 28888 ft | 281 kts | 178° |
| 2026-04-21 05:34 | -26.01082 | 149.55401 | 28854 ft | 281 kts | 178° |
| 2026-04-21 05:34 | -26.03038 | 149.55502 | 28819 ft | 281 kts | 178° |
| 2026-04-21 05:34 | -26.04996 | 149.55604 | 28786 ft | 281 kts | 178° |
| 2026-04-21 05:34 | -26.06950 | 149.55705 | 28756 ft | 281 kts | 178° |
| 2026-04-21 05:35 | -26.08906 | 149.55807 | 28727 ft | 281 kts | 178° |
| 2026-04-21 05:35 | -26.10856 | 149.55909 | 28703 ft | 281 kts | 178° |
| 2026-04-21 05:35 | -26.12804 | 149.56010 | 28671 ft | 280 kts | 178° |
| 2026-04-21 05:35 | -26.14751 | 149.56111 | 28645 ft | 280 kts | 178° |
| 2026-04-21 05:36 | -26.16698 | 149.56213 | 28613 ft | 280 kts | 178° |
| 2026-04-21 05:36 | -26.18644 | 149.56314 | 28584 ft | 280 kts | 178° |
| 2026-04-21 05:36 | -26.20568 | 149.56415 | 28555 ft | 280 kts | 178° |
| 2026-04-21 05:36 | -26.22511 | 149.56516 | 28517 ft | 280 kts | 178° |
| 2026-04-21 05:37 | -26.24462 | 149.56618 | 28491 ft | 280 kts | 178° |
| 2026-04-21 05:37 | -26.26407 | 149.56720 | 28469 ft | 280 kts | 178° |
| 2026-04-21 05:37 | -26.28352 | 149.56822 | 28445 ft | 279 kts | 178° |
| 2026-04-21 05:37 | -26.30293 | 149.56923 | 28419 ft | 279 kts | 178° |
| 2026-04-21 05:38 | -26.32237 | 149.57025 | 28395 ft | 279 kts | 178° |
| 2026-04-21 05:38 | -26.34175 | 149.57127 | 28367 ft | 279 kts | 178° |
| 2026-04-21 05:38 | -26.36115 | 149.57228 | 28337 ft | 279 kts | 178° |
| 2026-04-21 05:38 | -26.38053 | 149.57330 | 28310 ft | 279 kts | 178° |
| 2026-04-21 05:39 | -26.39992 | 149.57432 | 28287 ft | 279 kts | 178° |
| 2026-04-21 05:39 | -26.41934 | 149.57535 | 28268 ft | 279 kts | 178° |
| 2026-04-21 05:39 | -26.43871 | 149.57637 | 28250 ft | 278 kts | 178° |
| 2026-04-21 05:39 | -26.45802 | 149.57739 | 28230 ft | 278 kts | 178° |
| 2026-04-21 05:40 | -26.47734 | 149.57841 | 28209 ft | 278 kts | 178° |
| 2026-04-21 05:40 | -26.49642 | 149.57943 | 28187 ft | 278 kts | 178° |
| 2026-04-21 05:40 | -26.51572 | 149.58045 | 28159 ft | 278 kts | 178° |
| 2026-04-21 05:40 | -26.53526 | 149.58149 | 28136 ft | 278 kts | 178° |
| 2026-04-21 05:41 | -26.55433 | 149.58251 | 28119 ft | 278 kts | 178° |
| 2026-04-21 05:41 | -26.57361 | 149.58355 | 28100 ft | 277 kts | 178° |
| 2026-04-21 05:41 | -26.59288 | 149.58459 | 28082 ft | 277 kts | 178° |
| 2026-04-21 05:41 | -26.61213 | 149.58565 | 28063 ft | 277 kts | 178° |
| 2026-04-21 05:42 | -26.63136 | 149.58671 | 28043 ft | 277 kts | 178° |
| 2026-04-21 05:42 | -26.65063 | 149.58775 | 28025 ft | 277 kts | 178° |
| 2026-04-21 05:42 | -26.66992 | 149.58876 | 27999 ft | 277 kts | 178° |
| 2026-04-21 05:42 | -26.68919 | 149.58975 | 27982 ft | 277 kts | 178° |
| 2026-04-21 05:43 | -26.70844 | 149.59074 | 27966 ft | 277 kts | 178° |
| 2026-04-21 05:43 | -26.72765 | 149.59171 | 27949 ft | 276 kts | 178° |
| 2026-04-21 05:43 | -26.74688 | 149.59260 | 27932 ft | 276 kts | 178° |
| 2026-04-21 05:43 | -26.76606 | 149.59351 | 27921 ft | 276 kts | 178° |
| 2026-04-21 05:44 | -26.78526 | 149.59443 | 27899 ft | 276 kts | 178° |
| 2026-04-21 05:44 | -26.80445 | 149.59538 | 27881 ft | 276 kts | 178° |
| 2026-04-21 05:44 | -26.82363 | 149.59634 | 27864 ft | 276 kts | 178° |
| 2026-04-21 05:44 | -26.84255 | 149.59731 | 27848 ft | 276 kts | 178° |
| 2026-04-21 05:45 | -26.86168 | 149.59829 | 27833 ft | 273 kts | 178° |
| 2026-04-21 05:45 | -26.88041 | 149.59925 | 27972 ft | 266 kts | 178° |
| 2026-04-21 05:45 | -26.89907 | 149.60025 | 28012 ft | 276 kts | 177° |
| 2026-04-21 05:45 | -26.91878 | 149.60159 | 28123 ft | 290 kts | 177° |
| 2026-04-21 05:46 | -26.93935 | 149.60288 | 28399 ft | 299 kts | 177° |
| 2026-04-21 05:46 | -26.96042 | 149.60407 | 28663 ft | 304 kts | 178° |
| 2026-04-21 05:46 | -26.98133 | 149.60487 | 28887 ft | 297 kts | 179° |
| 2026-04-21 05:46 | -27.00182 | 149.60571 | 29113 ft | 290 kts | 178° |
| 2026-04-21 05:47 | -27.02150 | 149.60663 | 29339 ft | 283 kts | 178° |
| 2026-04-21 05:47 | -27.04097 | 149.60760 | 29515 ft | 277 kts | 178° |
| 2026-04-21 05:47 | -27.06014 | 149.60857 | 29580 ft | 275 kts | 178° |
| 2026-04-21 05:47 | -27.07934 | 149.60956 | 29518 ft | 278 kts | 178° |
| 2026-04-21 05:48 | -27.09924 | 149.61044 | 29041 ft | 298 kts | 179° |
| 2026-04-21 05:48 | -27.12091 | 149.61125 | 28446 ft | 322 kts | 178° |
| 2026-04-21 05:48 | -27.16620 | 149.61380 | 28403 ft | 327 kts | 178° |
| 2026-04-21 05:49 | -27.21227 | 149.61660 | 28492 ft | 341 kts | 176° |
| 2026-04-21 05:49 | -27.23654 | 149.61828 | 28615 ft | 355 kts | 177° |
| 2026-04-21 05:49 | -27.26172 | 149.61986 | 28729 ft | 369 kts | 177° |
| 2026-04-21 05:50 | -27.28748 | 149.62134 | 28833 ft | 381 kts | 177° |
| 2026-04-21 05:50 | -27.31442 | 149.62282 | 28937 ft | 393 kts | 177° |
| 2026-04-21 05:50 | -27.34216 | 149.62430 | 29079 ft | 404 kts | 178° |
| 2026-04-21 05:50 | -27.37051 | 149.62579 | 29279 ft | 411 kts | 178° |
| 2026-04-21 05:51 | -27.39927 | 149.62731 | 29555 ft | 416 kts | 178° |
| 2026-04-21 05:51 | -27.42830 | 149.62884 | 29900 ft | 418 kts | 178° |
| 2026-04-21 05:51 | -27.45730 | 149.63187 | 30228 ft | 421 kts | 167° |
| 2026-04-21 05:51 | -27.48446 | 149.64397 | 30493 ft | 418 kts | 149° |
| 2026-04-21 05:52 | -27.50681 | 149.66466 | 30486 ft | 416 kts | 130° |
| 2026-04-21 05:52 | -27.52209 | 149.69213 | 30490 ft | 414 kts | 113° |
| 2026-04-21 05:52 | -27.52986 | 149.72259 | 30493 ft | 411 kts | 96° |